sensor_id;sensor_type;location;lat;lon;timestamp;P1;durP1;ratioP1;P2;durP2;ratioP2
14066;SDS011;7108;42.684;23.350;2023-04-03T00:00:50;253.53;;;83.10;;
14066;SDS011;7108;42.684;23.350;2023-04-03T00:03:16;235.70;;;80.40;;
14066;SDS011;7108;42.684;23.350;2023-04-03T00:05:42;252.83;;;82.77;;
14066;SDS011;7108;42.684;23.350;2023-04-03T00:08:08;231.13;;;79.57;;
14066;SDS011;7108;42.684;23.350;2023-04-03T00:10:34;239.90;;;80.33;;
14066;SDS011;7108;42.684;23.350;2023-04-03T00:13:01;231.90;;;81.27;;
14066;SDS011;7108;42.684;23.350;2023-04-03T00:15:27;241.43;;;81.80;;
14066;SDS011;7108;42.684;23.350;2023-04-03T00:17:53;256.97;;;83.07;;
14066;SDS011;7108;42.684;23.350;2023-04-03T00:20:19;241.73;;;82.40;;
14066;SDS011;7108;42.684;23.350;2023-04-03T00:22:44;245.83;;;81.00;;
14066;SDS011;7108;42.684;23.350;2023-04-03T00:25:10;239.07;;;79.07;;
14066;SDS011;7108;42.684;23.350;2023-04-03T00:27:37;229.47;;;81.13;;
14066;SDS011;7108;42.684;23.350;2023-04-03T00:30:04;238.33;;;81.60;;
14066;SDS011;7108;42.684;23.350;2023-04-03T00:32:31;234.57;;;82.00;;
14066;SDS011;7108;42.684;23.350;2023-04-03T00:34:56;241.80;;;82.40;;
14066;SDS011;7108;42.684;23.350;2023-04-03T00:37:21;257.93;;;82.23;;
14066;SDS011;7108;42.684;23.350;2023-04-03T00:39:47;248.13;;;82.57;;
14066;SDS011;7108;42.684;23.350;2023-04-03T00:42:12;257.80;;;84.80;;
14066;SDS011;7108;42.684;23.350;2023-04-03T00:47:03;223.87;;;81.33;;
14066;SDS011;7108;42.684;23.350;2023-04-03T00:49:31;229.27;;;77.33;;
14066;SDS011;7108;42.684;23.350;2023-04-03T00:51:58;227.60;;;80.60;;
14066;SDS011;7108;42.684;23.350;2023-04-03T00:54:24;244.07;;;81.73;;
14066;SDS011;7108;42.684;23.350;2023-04-03T00:56:51;250.03;;;83.07;;
14066;SDS011;7108;42.684;23.350;2023-04-03T00:59:20;249.20;;;85.47;;
14066;SDS011;7108;42.684;23.350;2023-04-03T01:01:50;245.07;;;83.57;;
14066;SDS011;7108;42.684;23.350;2023-04-03T01:07:13;238.00;;;80.17;;
14066;SDS011;7108;42.684;23.350;2023-04-03T01:09:43;245.80;;;81.50;;
14066;SDS011;7108;42.684;23.350;2023-04-03T01:14:54;247.77;;;82.47;;
14066;SDS011;7108;42.684;23.350;2023-04-03T01:17:45;234.23;;;78.33;;
14066;SDS011;7108;42.684;23.350;2023-04-03T01:23:03;249.90;;;81.33;;
14066;SDS011;7108;42.684;23.350;2023-04-03T01:25:32;223.97;;;78.33;;
14066;SDS011;7108;42.684;23.350;2023-04-03T01:27:59;220.83;;;77.53;;
14066;SDS011;7108;42.684;23.350;2023-04-03T01:30:28;248.40;;;82.77;;
14066;SDS011;7108;42.684;23.350;2023-04-03T01:32:56;228.50;;;80.07;;
14066;SDS011;7108;42.684;23.350;2023-04-03T01:35:22;248.13;;;79.90;;
14066;SDS011;7108;42.684;23.350;2023-04-03T01:37:48;233.20;;;80.40;;
14066;SDS011;7108;42.684;23.350;2023-04-03T01:40:13;244.27;;;79.17;;
14066;SDS011;7108;42.684;23.350;2023-04-03T01:42:38;227.23;;;81.13;;
14066;SDS011;7108;42.684;23.350;2023-04-03T01:45:04;221.03;;;78.33;;
14066;SDS011;7108;42.684;23.350;2023-04-03T01:47:30;227.13;;;79.20;;
14066;SDS011;7108;42.684;23.350;2023-04-03T01:49:55;245.33;;;81.83;;
14066;SDS011;7108;42.684;23.350;2023-04-03T01:52:21;243.50;;;79.90;;
14066;SDS011;7108;42.684;23.350;2023-04-03T01:54:46;239.67;;;80.47;;
14066;SDS011;7108;42.684;23.350;2023-04-03T01:57:12;248.03;;;80.40;;
14066;SDS011;7108;42.684;23.350;2023-04-03T01:59:38;217.77;;;78.83;;
14066;SDS011;7108;42.684;23.350;2023-04-03T02:02:04;216.27;;;75.03;;
14066;SDS011;7108;42.684;23.350;2023-04-03T02:04:29;231.43;;;80.83;;
14066;SDS011;7108;42.684;23.350;2023-04-03T02:06:55;262.50;;;82.53;;
14066;SDS011;7108;42.684;23.350;2023-04-03T02:09:20;259.03;;;83.17;;
14066;SDS011;7108;42.684;23.350;2023-04-03T02:11:45;238.13;;;79.03;;
14066;SDS011;7108;42.684;23.350;2023-04-03T02:14:11;239.37;;;77.83;;
14066;SDS011;7108;42.684;23.350;2023-04-03T02:16:36;234.90;;;78.83;;
14066;SDS011;7108;42.684;23.350;2023-04-03T02:19:02;209.33;;;72.17;;
14066;SDS011;7108;42.684;23.350;2023-04-03T02:21:28;224.13;;;75.67;;
14066;SDS011;7108;42.684;23.350;2023-04-03T02:23:53;231.83;;;77.50;;
14066;SDS011;7108;42.684;23.350;2023-04-03T02:26:19;245.27;;;80.47;;
14066;SDS011;7108;42.684;23.350;2023-04-03T02:28:45;228.23;;;76.07;;
14066;SDS011;7108;42.684;23.350;2023-04-03T02:31:10;217.97;;;75.97;;
14066;SDS011;7108;42.684;23.350;2023-04-03T02:33:36;206.00;;;73.60;;
14066;SDS011;7108;42.684;23.350;2023-04-03T02:36:02;216.27;;;75.73;;
14066;SDS011;7108;42.684;23.350;2023-04-03T02:38:29;226.60;;;77.73;;
14066;SDS011;7108;42.684;23.350;2023-04-03T02:41:05;239.57;;;80.53;;
14066;SDS011;7108;42.684;23.350;2023-04-03T02:43:32;219.63;;;76.43;;
14066;SDS011;7108;42.684;23.350;2023-04-03T02:45:58;212.40;;;74.47;;
14066;SDS011;7108;42.684;23.350;2023-04-03T02:48:24;244.77;;;77.90;;
14066;SDS011;7108;42.684;23.350;2023-04-03T02:50:50;241.00;;;78.20;;
14066;SDS011;7108;42.684;23.350;2023-04-03T02:53:16;237.73;;;79.23;;
14066;SDS011;7108;42.684;23.350;2023-04-03T02:55:41;234.07;;;77.83;;
14066;SDS011;7108;42.684;23.350;2023-04-03T02:58:07;226.50;;;77.33;;
14066;SDS011;7108;42.684;23.350;2023-04-03T03:00:33;220.83;;;77.83;;
14066;SDS011;7108;42.684;23.350;2023-04-03T03:02:59;221.70;;;77.13;;
14066;SDS011;7108;42.684;23.350;2023-04-03T03:05:25;226.03;;;74.67;;
14066;SDS011;7108;42.684;23.350;2023-04-03T03:07:51;233.13;;;79.40;;
14066;SDS011;7108;42.684;23.350;2023-04-03T03:10:16;254.77;;;80.87;;
14066;SDS011;7108;42.684;23.350;2023-04-03T03:12:42;236.33;;;79.57;;
14066;SDS011;7108;42.684;23.350;2023-04-03T03:15:08;206.07;;;74.63;;
14066;SDS011;7108;42.684;23.350;2023-04-03T03:17:33;210.67;;;74.90;;
14066;SDS011;7108;42.684;23.350;2023-04-03T03:20:00;227.40;;;78.30;;
14066;SDS011;7108;42.684;23.350;2023-04-03T03:22:26;242.17;;;79.30;;
14066;SDS011;7108;42.684;23.350;2023-04-03T03:24:53;237.73;;;79.97;;
14066;SDS011;7108;42.684;23.350;2023-04-03T03:27:18;248.73;;;79.77;;
14066;SDS011;7108;42.684;23.350;2023-04-03T03:29:43;226.20;;;79.63;;
14066;SDS011;7108;42.684;23.350;2023-04-03T03:32:09;221.20;;;77.53;;
14066;SDS011;7108;42.684;23.350;2023-04-03T03:34:34;218.53;;;77.07;;
14066;SDS011;7108;42.684;23.350;2023-04-03T03:37:00;223.27;;;77.63;;
14066;SDS011;7108;42.684;23.350;2023-04-03T03:39:25;238.10;;;79.83;;
14066;SDS011;7108;42.684;23.350;2023-04-03T03:41:51;232.70;;;79.03;;
14066;SDS011;7108;42.684;23.350;2023-04-03T03:44:18;245.87;;;80.13;;
14066;SDS011;7108;42.684;23.350;2023-04-03T03:46:44;243.47;;;81.20;;
14066;SDS011;7108;42.684;23.350;2023-04-03T03:49:10;223.73;;;76.17;;
14066;SDS011;7108;42.684;23.350;2023-04-03T03:51:36;224.37;;;76.33;;
14066;SDS011;7108;42.684;23.350;2023-04-03T03:54:02;221.77;;;77.60;;
14066;SDS011;7108;42.684;23.350;2023-04-03T03:56:28;211.73;;;74.20;;
14066;SDS011;7108;42.684;23.350;2023-04-03T03:58:53;230.80;;;78.03;;
14066;SDS011;7108;42.684;23.350;2023-04-03T04:01:21;247.30;;;81.07;;
14066;SDS011;7108;42.684;23.350;2023-04-03T04:03:47;217.40;;;76.13;;
14066;SDS011;7108;42.684;23.350;2023-04-03T04:06:12;233.73;;;80.53;;
14066;SDS011;7108;42.684;23.350;2023-04-03T04:08:38;222.17;;;75.47;;
14066;SDS011;7108;42.684;23.350;2023-04-03T04:11:03;216.30;;;75.10;;
14066;SDS011;7108;42.684;23.350;2023-04-03T04:13:29;262.60;;;79.43;;
14066;SDS011;7108;42.684;23.350;2023-04-03T04:15:55;280.70;;;84.83;;
14066;SDS011;7108;42.684;23.350;2023-04-03T04:18:20;227.37;;;76.90;;
14066;SDS011;7108;42.684;23.350;2023-04-03T04:20:47;252.23;;;81.57;;
14066;SDS011;7108;42.684;23.350;2023-04-03T04:23:13;241.07;;;79.07;;
14066;SDS011;7108;42.684;23.350;2023-04-03T04:25:38;214.93;;;75.23;;
14066;SDS011;7108;42.684;23.350;2023-04-03T04:28:04;224.30;;;76.80;;
14066;SDS011;7108;42.684;23.350;2023-04-03T04:30:29;227.30;;;78.33;;
14066;SDS011;7108;42.684;23.350;2023-04-03T04:32:55;245.47;;;81.13;;
14066;SDS011;7108;42.684;23.350;2023-04-03T04:35:20;247.27;;;80.50;;
14066;SDS011;7108;42.684;23.350;2023-04-03T04:37:46;232.50;;;79.53;;
14066;SDS011;7108;42.684;23.350;2023-04-03T04:40:11;239.30;;;79.77;;
14066;SDS011;7108;42.684;23.350;2023-04-03T04:42:37;217.07;;;76.63;;
14066;SDS011;7108;42.684;23.350;2023-04-03T04:45:03;210.80;;;74.80;;
14066;SDS011;7108;42.684;23.350;2023-04-03T04:47:28;225.37;;;77.30;;
14066;SDS011;7108;42.684;23.350;2023-04-03T04:49:54;253.17;;;81.60;;
14066;SDS011;7108;42.684;23.350;2023-04-03T04:52:20;242.33;;;81.00;;
14066;SDS011;7108;42.684;23.350;2023-04-03T04:54:45;235.23;;;80.20;;
14066;SDS011;7108;42.684;23.350;2023-04-03T04:57:11;240.27;;;79.33;;
14066;SDS011;7108;42.684;23.350;2023-04-03T04:59:36;215.10;;;75.57;;
14066;SDS011;7108;42.684;23.350;2023-04-03T05:02:02;253.93;;;81.83;;
14066;SDS011;7108;42.684;23.350;2023-04-03T05:04:27;256.03;;;81.43;;
14066;SDS011;7108;42.684;23.350;2023-04-03T05:06:53;249.53;;;80.27;;
14066;SDS011;7108;42.684;23.350;2023-04-03T05:09:18;277.43;;;85.50;;
14066;SDS011;7108;42.684;23.350;2023-04-03T05:11:45;276.77;;;86.17;;
14066;SDS011;7108;42.684;23.350;2023-04-03T05:14:11;262.73;;;82.53;;
14066;SDS011;7108;42.684;23.350;2023-04-03T05:16:36;248.83;;;80.50;;
14066;SDS011;7108;42.684;23.350;2023-04-03T05:19:02;264.27;;;83.17;;
14066;SDS011;7108;42.684;23.350;2023-04-03T05:21:28;248.87;;;78.90;;
14066;SDS011;7108;42.684;23.350;2023-04-03T05:23:57;322.37;;;93.27;;
14066;SDS011;7108;42.684;23.350;2023-04-03T05:26:24;327.00;;;94.93;;
14066;SDS011;7108;42.684;23.350;2023-04-03T05:28:51;248.17;;;81.17;;
14066;SDS011;7108;42.684;23.350;2023-04-03T05:31:16;287.77;;;84.80;;
14066;SDS011;7108;42.684;23.350;2023-04-03T05:33:42;270.53;;;83.53;;
14066;SDS011;7108;42.684;23.350;2023-04-03T05:36:07;242.67;;;81.17;;
14066;SDS011;7108;42.684;23.350;2023-04-03T05:38:33;263.77;;;81.43;;
14066;SDS011;7108;42.684;23.350;2023-04-03T05:40:58;244.33;;;81.70;;
14066;SDS011;7108;42.684;23.350;2023-04-03T05:43:24;299.77;;;89.17;;
14066;SDS011;7108;42.684;23.350;2023-04-03T05:45:50;281.23;;;87.70;;
14066;SDS011;7108;42.684;23.350;2023-04-03T05:48:17;268.70;;;87.50;;
14066;SDS011;7108;42.684;23.350;2023-04-03T05:50:42;301.73;;;91.33;;
14066;SDS011;7108;42.684;23.350;2023-04-03T05:53:16;234.90;;;80.57;;
14066;SDS011;7108;42.684;23.350;2023-04-03T05:55:45;290.27;;;88.93;;
14066;SDS011;7108;42.684;23.350;2023-04-03T05:58:11;284.03;;;90.63;;
14066;SDS011;7108;42.684;23.350;2023-04-03T06:00:36;230.03;;;81.53;;
14066;SDS011;7108;42.684;23.350;2023-04-03T06:03:02;224.33;;;82.17;;
14066;SDS011;7108;42.684;23.350;2023-04-03T06:05:27;241.37;;;82.17;;
14066;SDS011;7108;42.684;23.350;2023-04-03T06:07:53;278.50;;;89.03;;
14066;SDS011;7108;42.684;23.350;2023-04-03T06:10:18;269.13;;;83.40;;
14066;SDS011;7108;42.684;23.350;2023-04-03T06:12:45;282.77;;;84.77;;
14066;SDS011;7108;42.684;23.350;2023-04-03T06:15:10;248.87;;;80.83;;
14066;SDS011;7108;42.684;23.350;2023-04-03T06:17:36;259.57;;;85.87;;
14066;SDS011;7108;42.684;23.350;2023-04-03T06:20:02;248.37;;;83.73;;
14066;SDS011;7108;42.684;23.350;2023-04-03T06:22:29;279.77;;;86.43;;
14066;SDS011;7108;42.684;23.350;2023-04-03T06:24:55;256.03;;;84.90;;
14066;SDS011;7108;42.684;23.350;2023-04-03T06:27:21;258.10;;;84.17;;
14066;SDS011;7108;42.684;23.350;2023-04-03T06:29:47;245.47;;;83.53;;
14066;SDS011;7108;42.684;23.350;2023-04-03T06:32:13;245.60;;;85.07;;
14066;SDS011;7108;42.684;23.350;2023-04-03T06:34:39;240.50;;;84.70;;
14066;SDS011;7108;42.684;23.350;2023-04-03T06:37:05;231.37;;;80.23;;
14066;SDS011;7108;42.684;23.350;2023-04-03T06:39:31;238.03;;;80.27;;
14066;SDS011;7108;42.684;23.350;2023-04-03T06:41:57;220.23;;;79.93;;
14066;SDS011;7108;42.684;23.350;2023-04-03T06:44:22;255.10;;;83.13;;
14066;SDS011;7108;42.684;23.350;2023-04-03T06:46:48;251.93;;;85.93;;
14066;SDS011;7108;42.684;23.350;2023-04-03T06:49:13;267.13;;;87.03;;
14066;SDS011;7108;42.684;23.350;2023-04-03T06:51:40;260.20;;;85.43;;
14066;SDS011;7108;42.684;23.350;2023-04-03T06:54:05;225.60;;;80.33;;
14066;SDS011;7108;42.684;23.350;2023-04-03T06:56:33;239.37;;;79.53;;
14066;SDS011;7108;42.684;23.350;2023-04-03T06:58:59;222.77;;;78.87;;
14066;SDS011;7108;42.684;23.350;2023-04-03T07:01:25;261.00;;;83.07;;
14066;SDS011;7108;42.684;23.350;2023-04-03T07:03:52;225.37;;;79.70;;
14066;SDS011;7108;42.684;23.350;2023-04-03T07:06:18;246.70;;;82.53;;
14066;SDS011;7108;42.684;23.350;2023-04-03T07:08:44;256.97;;;81.43;;
14066;SDS011;7108;42.684;23.350;2023-04-03T07:11:11;241.97;;;80.87;;
14066;SDS011;7108;42.684;23.350;2023-04-03T07:13:37;238.37;;;83.30;;
14066;SDS011;7108;42.684;23.350;2023-04-03T07:16:03;226.53;;;79.30;;
14066;SDS011;7108;42.684;23.350;2023-04-03T07:18:30;234.70;;;79.33;;
14066;SDS011;7108;42.684;23.350;2023-04-03T07:20:56;251.40;;;81.77;;
14066;SDS011;7108;42.684;23.350;2023-04-03T07:23:22;274.20;;;85.30;;
14066;SDS011;7108;42.684;23.350;2023-04-03T07:25:50;252.63;;;84.43;;
14066;SDS011;7108;42.684;23.350;2023-04-03T07:28:16;279.03;;;88.80;;
14066;SDS011;7108;42.684;23.350;2023-04-03T07:30:46;240.67;;;81.17;;
14066;SDS011;7108;42.684;23.350;2023-04-03T07:33:14;258.20;;;84.77;;
14066;SDS011;7108;42.684;23.350;2023-04-03T07:35:40;255.93;;;83.13;;
14066;SDS011;7108;42.684;23.350;2023-04-03T07:38:07;237.47;;;83.13;;
14066;SDS011;7108;42.684;23.350;2023-04-03T07:40:33;251.63;;;82.23;;
14066;SDS011;7108;42.684;23.350;2023-04-03T07:42:58;221.57;;;81.03;;
14066;SDS011;7108;42.684;23.350;2023-04-03T07:45:24;270.17;;;85.43;;
14066;SDS011;7108;42.684;23.350;2023-04-03T07:47:50;269.67;;;85.97;;
14066;SDS011;7108;42.684;23.350;2023-04-03T07:50:16;259.97;;;84.83;;
14066;SDS011;7108;42.684;23.350;2023-04-03T07:52:42;265.20;;;88.33;;
14066;SDS011;7108;42.684;23.350;2023-04-03T07:55:08;253.37;;;87.43;;
14066;SDS011;7108;42.684;23.350;2023-04-03T07:57:33;249.13;;;85.63;;
14066;SDS011;7108;42.684;23.350;2023-04-03T08:00:00;235.50;;;87.03;;
14066;SDS011;7108;42.684;23.350;2023-04-03T08:02:25;291.60;;;93.50;;
14066;SDS011;7108;42.684;23.350;2023-04-03T08:04:51;290.40;;;90.20;;
14066;SDS011;7108;42.684;23.350;2023-04-03T08:07:17;299.50;;;92.87;;
14066;SDS011;7108;42.684;23.350;2023-04-03T08:09:42;301.90;;;91.63;;
14066;SDS011;7108;42.684;23.350;2023-04-03T08:12:09;286.33;;;93.87;;
14066;SDS011;7108;42.684;23.350;2023-04-03T08:14:36;280.00;;;91.17;;
14066;SDS011;7108;42.684;23.350;2023-04-03T08:17:02;265.23;;;87.50;;
14066;SDS011;7108;42.684;23.350;2023-04-03T08:19:29;283.73;;;90.33;;
14066;SDS011;7108;42.684;23.350;2023-04-03T08:21:55;290.97;;;90.67;;
14066;SDS011;7108;42.684;23.350;2023-04-03T08:24:23;284.67;;;89.83;;
14066;SDS011;7108;42.684;23.350;2023-04-03T08:26:49;269.37;;;86.33;;
14066;SDS011;7108;42.684;23.350;2023-04-03T08:29:15;265.40;;;89.20;;
14066;SDS011;7108;42.684;23.350;2023-04-03T08:31:40;272.13;;;88.93;;
14066;SDS011;7108;42.684;23.350;2023-04-03T08:34:05;233.63;;;83.93;;
14066;SDS011;7108;42.684;23.350;2023-04-03T08:36:31;240.37;;;83.63;;
14066;SDS011;7108;42.684;23.350;2023-04-03T08:38:57;239.70;;;82.67;;
14066;SDS011;7108;42.684;23.350;2023-04-03T08:41:38;274.20;;;88.03;;
14066;SDS011;7108;42.684;23.350;2023-04-03T08:44:13;238.73;;;83.97;;
14066;SDS011;7108;42.684;23.350;2023-04-03T08:49:45;258.63;;;87.07;;
14066;SDS011;7108;42.684;23.350;2023-04-03T08:52:15;252.07;;;84.77;;
14066;SDS011;7108;42.684;23.350;2023-04-03T08:54:55;265.63;;;87.70;;
14066;SDS011;7108;42.684;23.350;2023-04-03T08:57:28;262.57;;;83.30;;
14066;SDS011;7108;42.684;23.350;2023-04-03T09:00:00;247.07;;;88.03;;
14066;SDS011;7108;42.684;23.350;2023-04-03T09:02:53;268.13;;;86.47;;
14066;SDS011;7108;42.684;23.350;2023-04-03T09:08:18;225.87;;;82.07;;
14066;SDS011;7108;42.684;23.350;2023-04-03T09:11:21;223.53;;;82.03;;
14066;SDS011;7108;42.684;23.350;2023-04-03T09:14:03;254.87;;;85.33;;
14066;SDS011;7108;42.684;23.350;2023-04-03T09:19:07;244.03;;;83.47;;
14066;SDS011;7108;42.684;23.350;2023-04-03T09:22:02;253.23;;;84.60;;
14066;SDS011;7108;42.684;23.350;2023-04-03T09:24:37;241.47;;;81.43;;
14066;SDS011;7108;42.684;23.350;2023-04-03T09:27:04;239.67;;;83.30;;
14066;SDS011;7108;42.684;23.350;2023-04-03T09:29:32;235.20;;;81.13;;
14066;SDS011;7108;42.684;23.350;2023-04-03T09:32:12;231.40;;;82.47;;
14066;SDS011;7108;42.684;23.350;2023-04-03T09:34:45;273.23;;;87.47;;
14066;SDS011;7108;42.684;23.350;2023-04-03T09:37:33;249.20;;;88.20;;
14066;SDS011;7108;42.684;23.350;2023-04-03T09:40:01;245.47;;;85.27;;
14066;SDS011;7108;42.684;23.350;2023-04-03T09:42:29;242.97;;;83.27;;
14066;SDS011;7108;42.684;23.350;2023-04-03T09:44:56;259.20;;;87.20;;
14066;SDS011;7108;42.684;23.350;2023-04-03T09:47:25;259.63;;;84.03;;
14066;SDS011;7108;42.684;23.350;2023-04-03T09:52:49;274.07;;;88.80;;
14066;SDS011;7108;42.684;23.350;2023-04-03T09:55:23;270.43;;;89.47;;
14066;SDS011;7108;42.684;23.350;2023-04-03T09:57:57;301.67;;;94.97;;
14066;SDS011;7108;42.684;23.350;2023-04-03T10:00:28;297.03;;;94.00;;
14066;SDS011;7108;42.684;23.350;2023-04-03T10:02:58;277.40;;;90.63;;
14066;SDS011;7108;42.684;23.350;2023-04-03T10:05:44;301.40;;;91.80;;
14066;SDS011;7108;42.684;23.350;2023-04-03T10:10:35;274.37;;;87.07;;
14066;SDS011;7108;42.684;23.350;2023-04-03T10:15:54;246.47;;;81.47;;
14066;SDS011;7108;42.684;23.350;2023-04-03T10:21:14;252.10;;;84.47;;
14066;SDS011;7108;42.684;23.350;2023-04-03T10:23:48;256.77;;;85.10;;
14066;SDS011;7108;42.684;23.350;2023-04-03T10:29:24;255.43;;;83.97;;
14066;SDS011;7108;42.684;23.350;2023-04-03T10:38:18;241.57;;;82.40;;
14066;SDS011;7108;42.684;23.350;2023-04-03T10:40:56;254.97;;;83.63;;
14066;SDS011;7108;42.684;23.350;2023-04-03T10:57:26;265.93;;;81.13;;
14066;SDS011;7108;42.684;23.350;2023-04-03T10:59:56;250.30;;;84.13;;
14066;SDS011;7108;42.684;23.350;2023-04-03T11:02:39;238.23;;;80.40;;
14066;SDS011;7108;42.684;23.350;2023-04-03T11:08:21;254.13;;;81.97;;
14066;SDS011;7108;42.684;23.350;2023-04-03T11:11:01;224.97;;;78.57;;
14066;SDS011;7108;42.684;23.350;2023-04-03T11:13:34;239.93;;;79.43;;
14066;SDS011;7108;42.684;23.350;2023-04-03T11:16:17;237.63;;;80.40;;
14066;SDS011;7108;42.684;23.350;2023-04-03T11:18:49;256.63;;;81.40;;
14066;SDS011;7108;42.684;23.350;2023-04-03T11:21:20;242.37;;;82.13;;
14066;SDS011;7108;42.684;23.350;2023-04-03T11:23:46;240.63;;;81.73;;
14066;SDS011;7108;42.684;23.350;2023-04-03T11:26:13;242.33;;;78.10;;
14066;SDS011;7108;42.684;23.350;2023-04-03T11:28:45;253.03;;;80.50;;
14066;SDS011;7108;42.684;23.350;2023-04-03T11:36:47;261.23;;;80.63;;
14066;SDS011;7108;42.684;23.350;2023-04-03T11:39:23;230.77;;;76.30;;
14066;SDS011;7108;42.684;23.350;2023-04-03T11:41:49;242.67;;;80.87;;
14066;SDS011;7108;42.684;23.350;2023-04-03T11:47:02;217.87;;;76.17;;
14066;SDS011;7108;42.684;23.350;2023-04-03T11:55:36;221.30;;;75.57;;
14066;SDS011;7108;42.684;23.350;2023-04-03T12:21:22;247.57;;;80.13;;
14066;SDS011;7108;42.684;23.350;2023-04-03T12:24:15;253.00;;;79.30;;
14066;SDS011;7108;42.684;23.350;2023-04-03T12:29:53;245.33;;;78.87;;
14066;SDS011;7108;42.684;23.350;2023-04-03T12:32:31;244.57;;;77.53;;
14066;SDS011;7108;42.684;23.350;2023-04-03T12:40:43;223.57;;;77.87;;
14066;SDS011;7108;42.684;23.350;2023-04-03T12:48:26;257.73;;;79.70;;
14066;SDS011;7108;42.684;23.350;2023-04-03T12:50:54;236.93;;;77.83;;
14066;SDS011;7108;42.684;23.350;2023-04-03T12:53:21;243.93;;;79.43;;
14066;SDS011;7108;42.684;23.350;2023-04-03T12:55:54;248.43;;;79.50;;
14066;SDS011;7108;42.684;23.350;2023-04-03T12:58:23;239.67;;;77.87;;
14066;SDS011;7108;42.684;23.350;2023-04-03T13:01:26;238.93;;;78.70;;
14066;SDS011;7108;42.684;23.350;2023-04-03T13:03:56;240.77;;;77.73;;
14066;SDS011;7108;42.684;23.350;2023-04-03T13:06:24;242.50;;;80.20;;
14066;SDS011;7108;42.684;23.350;2023-04-03T13:08:54;237.80;;;76.63;;
14066;SDS011;7108;42.684;23.350;2023-04-03T13:11:25;228.23;;;74.17;;
14066;SDS011;7108;42.684;23.350;2023-04-03T13:13:59;245.20;;;79.53;;
14066;SDS011;7108;42.684;23.350;2023-04-03T13:16:28;220.23;;;74.23;;
14066;SDS011;7108;42.684;23.350;2023-04-03T13:18:55;208.90;;;73.13;;
14066;SDS011;7108;42.684;23.350;2023-04-03T13:21:22;229.13;;;76.43;;
14066;SDS011;7108;42.684;23.350;2023-04-03T13:23:50;248.83;;;80.57;;
14066;SDS011;7108;42.684;23.350;2023-04-03T13:26:20;257.80;;;85.13;;
14066;SDS011;7108;42.684;23.350;2023-04-03T13:28:47;255.43;;;77.00;;
14066;SDS011;7108;42.684;23.350;2023-04-03T13:34:03;219.27;;;74.73;;
14066;SDS011;7108;42.684;23.350;2023-04-03T13:36:37;226.67;;;73.33;;
14066;SDS011;7108;42.684;23.350;2023-04-03T13:39:26;221.20;;;74.10;;
14066;SDS011;7108;42.684;23.350;2023-04-03T13:42:01;205.77;;;70.57;;
14066;SDS011;7108;42.684;23.350;2023-04-03T13:44:39;223.90;;;73.17;;
14066;SDS011;7108;42.684;23.350;2023-04-03T13:53:41;226.87;;;73.40;;
14066;SDS011;7108;42.684;23.350;2023-04-03T13:55:53;206.30;;;69.57;;
14066;SDS011;7108;42.684;23.350;2023-04-03T13:58:53;247.47;;;76.20;;
14066;SDS011;7108;42.684;23.350;2023-04-03T14:01:22;243.10;;;77.50;;
14066;SDS011;7108;42.684;23.350;2023-04-03T14:04:01;236.43;;;75.20;;
14066;SDS011;7108;42.684;23.350;2023-04-03T14:06:35;226.63;;;74.80;;
14066;SDS011;7108;42.684;23.350;2023-04-03T14:09:00;232.20;;;75.90;;
14066;SDS011;7108;42.684;23.350;2023-04-03T14:11:27;278.57;;;83.40;;
14066;SDS011;7108;42.684;23.350;2023-04-03T14:13:55;279.80;;;84.80;;
14066;SDS011;7108;42.684;23.350;2023-04-03T14:16:27;266.10;;;81.63;;
14066;SDS011;7108;42.684;23.350;2023-04-03T14:18:55;275.70;;;82.70;;
14066;SDS011;7108;42.684;23.350;2023-04-03T14:21:21;249.87;;;81.13;;
14066;SDS011;7108;42.684;23.350;2023-04-03T14:23:48;268.57;;;81.03;;
14066;SDS011;7108;42.684;23.350;2023-04-03T14:26:23;274.20;;;80.83;;
14066;SDS011;7108;42.684;23.350;2023-04-03T14:28:52;256.63;;;76.50;;
14066;SDS011;7108;42.684;23.350;2023-04-03T14:31:19;273.80;;;81.93;;
14066;SDS011;7108;42.684;23.350;2023-04-03T14:33:46;263.47;;;79.33;;
14066;SDS011;7108;42.684;23.350;2023-04-03T14:36:16;266.30;;;80.60;;
14066;SDS011;7108;42.684;23.350;2023-04-03T14:38:44;277.07;;;83.13;;
14066;SDS011;7108;42.684;23.350;2023-04-03T14:41:12;277.00;;;81.60;;
14066;SDS011;7108;42.684;23.350;2023-04-03T14:43:38;259.23;;;77.00;;
14066;SDS011;7108;42.684;23.350;2023-04-03T14:46:04;246.80;;;77.03;;
14066;SDS011;7108;42.684;23.350;2023-04-03T14:48:34;249.13;;;78.13;;
14066;SDS011;7108;42.684;23.350;2023-04-03T14:51:00;223.97;;;73.33;;
14066;SDS011;7108;42.684;23.350;2023-04-03T14:53:26;277.73;;;79.57;;
14066;SDS011;7108;42.684;23.350;2023-04-03T14:55:54;266.93;;;79.30;;
14066;SDS011;7108;42.684;23.350;2023-04-03T14:58:20;259.80;;;78.73;;
14066;SDS011;7108;42.684;23.350;2023-04-03T15:00:46;286.93;;;81.87;;
14066;SDS011;7108;42.684;23.350;2023-04-03T15:03:16;252.80;;;76.67;;
14066;SDS011;7108;42.684;23.350;2023-04-03T15:05:44;254.23;;;79.40;;
14066;SDS011;7108;42.684;23.350;2023-04-03T15:08:21;279.10;;;80.47;;
14066;SDS011;7108;42.684;23.350;2023-04-03T15:10:50;265.10;;;79.63;;
14066;SDS011;7108;42.684;23.350;2023-04-03T15:13:20;267.87;;;77.40;;
14066;SDS011;7108;42.684;23.350;2023-04-03T15:15:46;277.87;;;79.93;;
14066;SDS011;7108;42.684;23.350;2023-04-03T15:18:17;262.73;;;76.77;;
14066;SDS011;7108;42.684;23.350;2023-04-03T15:20:49;282.30;;;79.67;;
14066;SDS011;7108;42.684;23.350;2023-04-03T15:23:15;270.57;;;78.17;;
14066;SDS011;7108;42.684;23.350;2023-04-03T15:25:42;256.67;;;78.70;;
14066;SDS011;7108;42.684;23.350;2023-04-03T15:28:10;273.03;;;77.73;;
14066;SDS011;7108;42.684;23.350;2023-04-03T15:30:44;274.77;;;78.63;;
14066;SDS011;7108;42.684;23.350;2023-04-03T15:33:09;280.10;;;80.57;;
14066;SDS011;7108;42.684;23.350;2023-04-03T15:35:35;252.40;;;76.43;;
14066;SDS011;7108;42.684;23.350;2023-04-03T15:38:00;240.37;;;74.20;;
14066;SDS011;7108;42.684;23.350;2023-04-03T15:40:26;234.33;;;72.37;;
14066;SDS011;7108;42.684;23.350;2023-04-03T15:42:51;245.50;;;76.80;;
14066;SDS011;7108;42.684;23.350;2023-04-03T15:45:17;284.17;;;81.50;;
14066;SDS011;7108;42.684;23.350;2023-04-03T15:47:42;284.27;;;81.30;;
14066;SDS011;7108;42.684;23.350;2023-04-03T15:50:08;262.20;;;77.00;;
14066;SDS011;7108;42.684;23.350;2023-04-03T15:52:34;255.00;;;76.33;;
14066;SDS011;7108;42.684;23.350;2023-04-03T15:55:00;248.07;;;74.87;;
14066;SDS011;7108;42.684;23.350;2023-04-03T15:57:26;284.23;;;79.83;;
14066;SDS011;7108;42.684;23.350;2023-04-03T15:59:52;282.33;;;83.23;;
14066;SDS011;7108;42.684;23.350;2023-04-03T16:02:17;289.93;;;83.17;;
14066;SDS011;7108;42.684;23.350;2023-04-03T16:04:43;275.07;;;80.67;;
14066;SDS011;7108;42.684;23.350;2023-04-03T16:07:08;252.37;;;77.37;;
14066;SDS011;7108;42.684;23.350;2023-04-03T16:09:34;242.13;;;74.83;;
14066;SDS011;7108;42.684;23.350;2023-04-03T16:12:01;248.13;;;75.97;;